createdAt,value
2018-05-01T14:28:00.214Z,45.48
2018-05-01T14:28:59.712Z,45.96
2018-05-01T14:30:58.653Z,44.90
2018-05-01T14:31:57.272Z,43.95
2018-05-01T14:33:53.234Z,43.76
2018-05-01T14:34:53.217Z,43.56
2018-05-01T14:36:51.680Z,43.27
2018-05-01T14:37:51.342Z,42.32
2018-05-01T14:39:47.766Z,41.94
2018-05-01T14:40:47.786Z,42.24
2018-05-01T14:42:43.197Z,43.08
2018-05-01T14:43:43.725Z,42.82
2018-05-01T14:45:39.145Z,43.68
2018-05-01T14:46:40.096Z,43.39
2018-05-01T14:48:38.089Z,41.38
2018-05-01T14:49:38.590Z,41.19
2018-05-01T14:51:33.043Z,41.65
2018-05-01T14:52:33.033Z,42.22
2018-05-01T14:54:29.991Z,42.30
2018-05-01T14:55:28.988Z,42.22
2018-05-01T14:57:25.947Z,42.77
2018-05-01T14:58:24.935Z,42.97
2018-05-01T15:00:24.392Z,43.56
2018-05-01T15:01:23.042Z,43.76
2018-05-01T15:03:19.518Z,42.80
2018-05-01T15:04:19.929Z,44.02
2018-05-01T15:06:17.431Z,44.71
2018-05-01T15:07:16.892Z,43.92
2018-05-01T15:09:14.864Z,42.77
2018-05-01T15:10:14.849Z,42.77
2018-05-01T15:12:12.818Z,43.44
2018-05-01T15:13:12.810Z,43.56
2018-05-01T15:15:08.786Z,42.22
2018-05-01T15:16:08.818Z,41.94
2018-05-01T15:18:05.752Z,41.46
2018-05-01T15:19:04.767Z,41.65
2018-05-01T15:21:01.708Z,42.11
2018-05-01T15:22:00.699Z,43.44
2018-05-01T15:23:59.172Z,42.99
2018-05-01T15:24:58.784Z,42.90
2018-05-01T15:26:56.771Z,42.13
2018-05-01T15:27:57.245Z,42.03
2018-05-01T15:29:54.914Z,42.80
2018-05-01T15:30:54.841Z,42.41
2018-05-01T15:32:51.793Z,41.55
2018-05-01T15:33:51.276Z,42.22
2018-05-01T15:35:46.676Z,41.91
2018-05-01T15:36:46.733Z,42.40
2018-05-01T15:38:43.205Z,43.35
2018-05-01T15:39:42.682Z,43.83
2018-05-01T15:41:39.704Z,42.97
2018-05-01T15:42:38.605Z,42.87
2018-05-01T15:44:34.555Z,43.52
2018-05-01T15:45:34.573Z,43.54
2018-05-01T15:47:32.536Z,44.02
2018-05-01T15:48:33.049Z,43.66
2018-05-01T15:50:30.425Z,43.27
2018-05-01T15:51:30.517Z,43.37
2018-05-01T15:53:30.930Z,43.27
2018-05-01T15:54:31.393Z,42.51
2018-05-01T15:56:30.356Z,43.37
2018-05-01T15:57:28.975Z,42.82
2018-05-01T15:59:26.953Z,42.53
2018-05-01T16:00:27.951Z,41.48
2018-05-01T16:02:25.398Z,41.36
2018-05-01T16:03:24.892Z,41.46
2018-05-01T16:05:23.854Z,42.22
2018-05-01T16:06:23.834Z,42.22
2018-05-01T16:08:19.337Z,43.18
2018-05-01T16:09:18.814Z,42.32
2018-05-01T16:11:18.307Z,41.46
2018-05-01T16:12:16.743Z,42.32
2018-05-01T16:14:16.762Z,42.03
2018-05-01T16:15:14.837Z,41.94
2018-05-01T16:17:11.315Z,41.46
2018-05-01T16:18:11.291Z,41.17
2018-05-01T16:20:09.258Z,41.55
2018-05-01T16:21:09.245Z,41.55
2018-05-01T16:23:06.701Z,41.55
2018-05-01T16:24:06.702Z,41.44
2018-05-01T16:26:05.667Z,42.11
2018-05-01T16:27:04.612Z,42.30
2018-05-01T16:29:03.599Z,41.63
2018-05-01T16:30:02.709Z,41.65
2018-05-01T16:32:01.169Z,41.17
2018-05-01T16:33:00.643Z,41.36
2018-05-01T16:34:59.096Z,41.55
2018-05-01T16:35:58.639Z,41.46
2018-05-01T16:37:56.551Z,41.36
2018-05-01T16:38:56.552Z,41.36
2018-05-01T16:40:54.539Z,41.53
2018-05-01T16:41:54.504Z,41.63
2018-05-01T16:43:52.530Z,42.01
2018-05-01T16:44:52.520Z,42.49
2018-05-01T16:46:50.412Z,41.82
2018-05-01T16:47:50.409Z,41.72
2018-05-01T16:49:48.399Z,43.44
2018-05-01T16:50:48.381Z,42.47
2018-05-01T16:52:46.832Z,42.76
2018-05-01T16:53:46.846Z,43.16
2018-05-01T16:55:42.306Z,43.06
2018-05-01T16:56:42.258Z,43.06
2018-05-01T16:58:38.215Z,42.97
2018-05-01T16:59:38.719Z,43.26
2018-05-01T17:01:35.201Z,43.18
2018-05-01T17:03:50.126Z,43.85
2018-05-01T17:04:50.119Z,43.08
2018-05-01T17:06:46.588Z,42.53
2018-05-01T17:07:46.096Z,42.14
2018-05-01T17:09:44.556Z,41.00
2018-05-01T17:10:44.172Z,41.00
2018-05-01T17:12:42.117Z,40.78
2018-05-01T17:13:42.611Z,41.17
2018-05-01T17:15:38.574Z,41.55
2018-05-01T17:16:38.059Z,41.46
2018-05-01T17:18:36.150Z,42.32
2018-05-01T17:19:36.120Z,42.60
2018-05-01T17:21:34.245Z,43.18
2018-05-01T17:22:34.248Z,42.90
2018-05-01T17:24:32.685Z,44.79
2018-05-01T17:25:33.249Z,44.40
2018-05-01T17:27:32.799Z,43.73
2018-05-01T17:28:32.802Z,44.02
2018-05-01T17:30:30.765Z,43.63
2018-05-01T17:31:30.734Z,43.90
2018-05-01T17:33:26.676Z,43.62
2018-05-01T17:34:28.192Z,44.09
2018-05-01T17:36:24.668Z,44.84
2018-05-01T17:37:24.613Z,45.79
2018-05-01T17:39:22.591Z,46.75
2018-05-01T17:40:22.582Z,46.46
2018-05-01T17:42:18.507Z,46.08
2018-05-01T17:43:18.535Z,46.27
2018-05-01T17:45:16.652Z,45.12
2018-05-01T17:46:17.552Z,45.41
2018-05-01T17:48:12.554Z,46.17
2018-05-01T17:49:12.559Z,45.70
2018-05-01T17:51:10.505Z,46.17
2018-05-01T17:52:10.488Z,46.17
2018-05-01T17:54:08.952Z,46.46
2018-05-01T17:55:08.415Z,46.46
2018-05-01T17:57:06.408Z,46.75
2018-05-01T17:58:06.361Z,47.42
2018-05-01T18:00:04.837Z,48.28
2018-05-01T18:01:04.315Z,47.89
2018-05-01T18:03:02.257Z,50.76
2018-05-01T18:04:02.260Z,50.00
2018-05-01T18:06:01.720Z,50.57
2018-05-01T18:07:01.217Z,49.80
2018-05-01T18:08:58.400Z,51.15
2018-05-01T18:09:58.412Z,52.29
2018-05-01T18:11:56.803Z,53.53
2018-05-01T18:12:55.883Z,54.97
2018-05-01T18:14:56.136Z,56.95
2018-05-01T18:15:55.590Z,56.76
2018-05-01T18:17:54.072Z,56.38
2018-05-01T18:18:53.682Z,58.10
2018-05-01T18:20:53.636Z,60.39
2018-05-01T18:21:52.661Z,61.72
2018-05-01T18:23:49.729Z,62.01
2018-05-01T18:24:47.705Z,61.92
2018-05-01T18:26:46.657Z,62.84
2018-05-01T18:27:45.799Z,65.80
2018-05-01T18:29:41.721Z,65.04
2018-05-01T18:30:41.779Z,65.71
2018-05-01T18:32:37.690Z,68.00
2018-05-01T18:33:38.197Z,67.24
2018-05-01T18:35:34.165Z,68.86
2018-05-01T18:36:33.578Z,68.96
2018-05-01T18:38:30.535Z,69.05
2018-05-01T18:39:30.036Z,69.34
2018-05-01T18:41:25.514Z,70.45
2018-05-01T18:42:25.475Z,69.87
2018-05-01T18:44:22.953Z,70.73
2018-05-01T18:45:22.409Z,70.92
2018-05-01T18:47:18.349Z,71.69
2018-05-01T18:48:19.857Z,71.69
2018-05-01T18:50:14.819Z,72.51
2018-05-01T18:51:14.286Z,71.94
2018-05-01T18:53:10.237Z,72.13
2018-05-01T18:54:10.256Z,72.80
2018-05-01T18:56:09.192Z,72.80
2018-05-01T18:57:08.151Z,72.80
2018-05-01T18:59:09.635Z,73.37
2018-05-01T19:00:08.584Z,73.37
2018-05-01T19:02:05.580Z,73.72
2018-05-01T19:03:05.038Z,73.81
2018-05-01T19:05:01.521Z,74.77
2018-05-01T19:06:00.535Z,74.10
2018-05-01T19:07:56.972Z,73.81
2018-05-01T19:08:56.468Z,74.29
2018-05-01T19:10:52.441Z,74.29
2018-05-01T19:11:52.405Z,74.48
2018-05-01T19:13:48.398Z,74.10
2018-05-01T19:14:48.386Z,75.05
2018-05-01T19:16:45.834Z,74.57
2018-05-01T19:17:44.353Z,74.73
2018-05-01T19:19:40.263Z,75.15
2018-05-01T19:20:40.268Z,75.49
2018-05-01T19:22:36.221Z,75.40
2018-05-01T19:23:36.186Z,75.49
2018-05-01T19:25:33.139Z,75.87
2018-05-01T19:26:32.106Z,75.49
2018-05-01T19:28:28.076Z,75.49
2018-05-01T19:29:28.045Z,75.68
2018-05-01T19:31:24.491Z,75.96
2018-05-01T19:32:24.003Z,75.78
2018-05-01T19:34:20.018Z,76.16
2018-05-01T19:35:20.450Z,75.96
2018-05-01T19:37:17.384Z,76.54
2018-05-01T19:38:16.808Z,76.40
2018-05-01T19:40:13.857Z,76.98
2018-05-01T19:41:12.346Z,76.50
2018-05-01T19:43:10.767Z,77.26
2018-05-01T19:44:09.767Z,76.79
2018-05-01T19:46:06.220Z,76.98
2018-05-01T19:47:05.679Z,77.36
2018-05-01T19:49:02.135Z,77.17
2018-05-01T19:50:02.628Z,77.55
2018-05-01T19:51:57.610Z,77.45
2018-05-01T19:52:59.090Z,78.03
2018-05-01T19:54:53.526Z,77.74
2018-05-01T19:55:53.487Z,77.45
2018-05-01T19:57:49.972Z,77.74
2018-05-01T19:58:49.435Z,77.55
2018-05-01T20:00:45.886Z,78.12
2018-05-01T20:01:45.909Z,78.31
2018-05-01T20:03:41.831Z,78.69
2018-05-01T20:04:41.354Z,78.69
2018-05-01T20:06:37.284Z,78.65
2018-05-01T20:07:37.252Z,78.85
2018-05-01T20:09:34.219Z,78.65
2018-05-01T20:10:33.184Z,78.85
2018-05-01T20:12:29.640Z,78.98
2018-05-01T20:13:29.145Z,78.65
2018-05-01T20:15:25.126Z,78.27
2018-05-01T20:16:25.123Z,78.27
2018-05-01T20:18:21.055Z,78.75
2018-05-01T20:19:21.589Z,78.75
2018-05-01T20:21:18.031Z,78.94
2018-05-01T20:22:17.935Z,79.41
2018-05-01T20:24:12.964Z,79.41
2018-05-01T20:25:12.995Z,79.22
2018-05-01T20:27:08.988Z,79.60
2018-05-01T20:28:08.900Z,79.47
2018-05-01T20:30:04.891Z,79.47
2018-05-01T20:31:04.864Z,79.57
2018-05-01T20:33:00.772Z,79.47
2018-05-01T20:34:00.779Z,79.47
2018-05-01T20:35:56.689Z,79.57
2018-05-01T20:36:57.230Z,79.38
2018-05-01T20:38:52.626Z,79.38
2018-05-01T20:39:52.615Z,79.57
2018-05-01T20:41:47.561Z,79.66
2018-05-01T20:42:47.574Z,79.66
2018-05-01T20:44:42.996Z,80.23
2018-05-01T20:45:42.992Z,80.04
2018-05-01T20:47:38.968Z,79.75
2018-05-01T20:48:38.921Z,79.66
2018-05-01T20:50:34.873Z,80.42
2018-05-01T20:51:34.861Z,80.52
2018-05-01T20:53:30.825Z,80.33
2018-05-01T20:54:31.811Z,80.33
2018-05-01T20:56:27.302Z,80.61
2018-05-01T20:57:27.264Z,80.23
2018-05-01T20:59:22.668Z,80.42
2018-05-01T21:00:23.184Z,80.42
2018-05-01T21:02:18.628Z,80.33
2018-05-01T21:03:18.618Z,80.23
2018-05-01T21:05:14.539Z,80.33
2018-05-01T21:06:14.507Z,80.71
2018-05-01T21:08:10.957Z,81.09
2018-05-01T21:09:10.435Z,80.61
2018-05-01T21:11:06.357Z,80.90
2018-05-01T21:12:06.890Z,81.09
2018-05-01T21:14:06.820Z,80.90
2018-05-01T21:15:06.808Z,80.52
2018-05-01T21:17:03.752Z,80.90
2018-05-01T21:18:02.766Z,80.71
2018-05-01T21:19:58.717Z,80.76
2018-05-01T21:20:58.742Z,80.95
2018-05-01T21:22:54.657Z,81.37
2018-05-01T21:23:54.662Z,81.47
2018-05-01T21:25:51.621Z,81.37
2018-05-01T21:26:51.556Z,80.86
2018-05-01T21:28:48.587Z,81.52
2018-05-01T21:29:47.526Z,81.24
2018-05-01T21:31:43.484Z,81.05
2018-05-01T21:32:43.968Z,81.14
2018-05-01T21:34:39.917Z,81.14
2018-05-01T21:35:39.385Z,81.09
2018-05-01T21:37:35.847Z,81.14
2018-05-01T21:38:35.340Z,81.62
2018-05-01T21:40:31.281Z,81.52
2018-05-01T21:41:31.271Z,82.00
2018-05-01T21:43:27.755Z,81.81
2018-05-01T21:44:27.255Z,81.71
2018-05-01T21:46:23.704Z,81.81
2018-05-01T21:47:23.691Z,82.09
2018-05-01T21:49:19.156Z,81.62
2018-05-01T21:50:19.623Z,82.09
2018-05-01T21:52:16.091Z,81.43
2018-05-01T21:53:16.068Z,81.33
2018-05-01T21:55:12.030Z,81.14
2018-05-01T21:56:12.003Z,81.62
2018-05-01T21:58:08.476Z,81.24
2018-05-01T21:59:07.928Z,81.43
2018-05-01T22:01:04.891Z,81.05
2018-05-01T22:02:03.881Z,81.14
2018-05-01T22:03:59.804Z,81.05
2018-05-01T22:04:59.811Z,80.47
2018-05-01T22:06:55.745Z,80.76
2018-05-01T22:07:55.761Z,80.47
2018-05-01T22:09:52.195Z,80.86
2018-05-01T22:10:51.692Z,80.57
2018-05-01T22:12:48.130Z,80.66
2018-05-01T22:13:47.611Z,80.00
2018-05-01T22:15:44.517Z,80.19
2018-05-01T22:16:44.532Z,80.38
2018-05-01T22:18:42.999Z,80.00
2018-05-01T22:19:43.478Z,80.00
2018-05-01T22:21:39.047Z,80.38
2018-05-01T22:22:38.546Z,79.91
2018-05-01T22:24:34.472Z,79.24
2018-05-01T22:25:34.464Z,79.14
2018-05-01T22:27:30.441Z,79.43
2018-05-01T22:28:30.454Z,78.77
2018-05-01T22:30:26.886Z,79.05
2018-05-01T22:31:26.359Z,79.05
2018-05-01T22:33:24.299Z,78.77
2018-05-01T22:34:24.363Z,79.62
2018-05-01T22:36:20.758Z,79.52
2018-05-01T22:37:20.206Z,79.24
2018-05-01T22:39:16.155Z,78.77
2018-05-01T22:40:16.651Z,78.19
2018-05-01T22:42:12.052Z,77.62
2018-05-01T22:43:12.570Z,77.34
2018-05-01T22:45:08.529Z,77.43
2018-05-01T22:46:07.994Z,77.15
2018-05-01T22:48:04.431Z,76.61
2018-05-01T22:49:03.911Z,76.81
2018-05-01T22:51:00.354Z,76.42
2018-05-01T22:51:59.863Z,76.42
2018-05-01T22:53:56.301Z,76.61
2018-05-01T22:54:55.771Z,76.81
2018-05-01T22:56:51.735Z,76.61
2018-05-01T22:57:52.259Z,76.33
2018-05-01T22:59:47.657Z,76.14
2018-05-01T23:00:47.663Z,76.42
2018-05-01T23:02:44.124Z,75.95
2018-05-01T23:03:43.577Z,76.23
2018-05-01T23:05:40.044Z,76.33
2018-05-01T23:06:40.050Z,76.23
2018-05-01T23:08:35.443Z,76.14
2018-05-01T23:09:35.450Z,76.23
2018-05-01T23:11:31.370Z,76.33
2018-05-01T23:12:31.381Z,75.95
2018-05-01T23:14:27.365Z,76.33
2018-05-01T23:15:27.359Z,76.52
2018-05-01T23:17:23.275Z,76.61
2018-05-01T23:18:23.791Z,76.52
2018-05-01T23:20:19.245Z,76.29
2018-05-01T23:21:19.209Z,76.48
2018-05-01T23:23:16.195Z,76.90
2018-05-01T23:24:15.155Z,76.33
2018-05-01T23:26:11.601Z,76.96
2018-05-01T23:27:11.077Z,76.76
2018-05-01T23:29:08.509Z,76.76
2018-05-01T23:30:07.494Z,77.05
2018-05-01T23:32:04.947Z,78.14
2018-05-01T23:33:05.436Z,77.62
2018-05-01T23:35:01.897Z,77.53
2018-05-01T23:36:01.391Z,78.00
2018-05-01T23:37:57.821Z,78.00
2018-05-01T23:38:56.826Z,78.38
2018-05-01T23:40:54.785Z,78.67
2018-05-01T23:41:54.792Z,78.48
2018-05-01T23:43:53.250Z,79.14
2018-05-01T23:44:52.964Z,79.24
2018-05-01T23:46:48.880Z,79.52
2018-05-01T23:47:48.826Z,79.62
2018-05-01T23:49:45.225Z,79.68
2018-05-01T23:50:44.732Z,79.58
2018-05-01T23:52:40.650Z,80.15
2018-05-01T23:53:40.654Z,80.15
2018-05-01T23:55:38.094Z,79.86
2018-05-01T23:56:36.657Z,80.44
2018-05-01T23:58:36.101Z,80.53
2018-05-01T23:59:34.593Z,80.24
